Time;durP1;ratioP1;P1;durP2;ratioP2;P2;SDS_P1;SDS_P2;PMS_P1;PMS_P2;Temp;Humidity;BMP_temperature;BMP_pressure;BME280_temperature;BME280_humidity;BME280_pressure;Samples;Min_cycle;Max_cycle;Signal;HPM_P1;HPM_P2
2021/11/14 00:00:37;;;;;;;14.73;9.68;;;;;;;7.12;96.89;101169.78;5015541;28;20057;-77
2021/11/14 00:03:15;;;;;;;13.63;10.07;;;;;;;7.12;96.86;101168.06;5015823;28;20052;-82
2021/11/14 00:05:54;;;;;;;14.63;9.85;;;;;;;7.14;96.78;101168.06;5013887;28;20048;-81
2021/11/14 00:08:22;;;;;;;12.82;9.85;;;;;;;7.14;96.92;101170.66;5021241;28;20071;-80
2021/11/14 00:11:00;;;;;;;10.98;8.82;;;;;;;7.13;96.98;101163.72;5020735;28;20067;-81
2021/11/14 00:13:31;;;;;;;11.00;7.70;;;;;;;7.14;96.70;101168.06;5025109;28;20494;-79
2021/11/14 00:15:58;;;;;;;15.38;10.05;;;;;;;7.15;96.92;101169.81;5015319;28;20121;-80
2021/11/14 00:18:50;;;;;;;16.35;10.88;;;;;;;7.15;97.54;101171.56;5015796;28;20046;-84
2021/11/14 00:21:21;;;;;;;16.60;10.02;;;;;;;7.12;97.51;101177.59;5002461;28;20041;-78
2021/11/14 00:23:48;;;;;;;12.50;10.15;;;;;;;7.12;97.22;101175.00;5036383;28;20037;-79
2021/11/14 00:26:34;;;;;;;18.02;11.18;;;;;;;7.11;97.88;101174.09;5016653;28;20038;-80
2021/11/14 00:29:27;;;;;;;12.52;9.57;;;;;;;7.10;97.60;101181.91;5020297;28;20045;-81
2021/11/14 00:32:00;;;;;;;13.75;8.38;;;;;;;7.12;98.04;101186.28;5021058;28;21422;-80
2021/11/14 00:34:28;;;;;;;17.48;11.75;;;;;;;7.13;97.62;101184.53;5004379;28;20053;-82
2021/11/14 00:36:55;;;;;;;13.80;9.45;;;;;;;7.14;97.69;101182.81;5007311;28;20056;-80
2021/11/14 00:39:29;;;;;;;18.15;11.43;;;;;;;7.14;97.73;101178.47;5001534;28;20072;-81
2021/11/14 00:42:07;;;;;;;14.45;10.05;;;;;;;7.12;97.86;101182.81;5022841;28;20061;-82
2021/11/14 00:44:44;;;;;;;13.70;9.52;;;;;;;7.12;97.79;101186.28;5024012;28;20057;-81
2021/11/14 00:47:16;;;;;;;16.02;10.20;;;;;;;7.12;97.74;101182.81;5033083;28;20053;-82
2021/11/14 00:49:51;;;;;;;16.45;11.32;;;;;;;7.10;97.86;101189.72;5018209;28;20057;-83
2021/11/14 00:52:27;;;;;;;14.45;10.50;;;;;;;7.08;98.16;101202.72;5021462;28;20073;-78
2021/11/14 00:54:56;;;;;;;16.85;11.15;;;;;;;7.07;98.22;101193.16;5002153;28;20065;-82
2021/11/14 00:57:23;;;;;;;14.05;10.75;;;;;;;7.07;97.87;101197.50;5018274;28;20041;-81
2021/11/14 00:59:50;;;;;;;16.02;11.02;;;;;;;7.07;98.11;101202.69;5018254;28;20365;-83
2021/11/14 01:02:17;;;;;;;14.43;10.88;;;;;;;7.07;97.96;101197.50;5021846;28;20133;-80
2021/11/14 01:04:45;;;;;;;17.50;10.57;;;;;;;7.08;98.20;101212.25;5005789;28;20049;-80
2021/11/14 01:07:12;;;;;;;14.52;10.07;;;;;;;7.09;98.08;101216.59;5024585;28;20084;-81
2021/11/14 01:09:40;;;;;;;16.55;9.50;;;;;;;7.09;98.02;101209.69;5016828;28;20515;-82
2021/11/14 01:12:09;;;;;;;19.17;11.27;;;;;;;7.09;98.14;101217.50;4996090;28;20037;-79
2021/11/14 01:14:36;;;;;;;16.30;11.30;;;;;;;7.09;98.39;101225.28;5007467;28;20131;-82
2021/11/14 01:17:07;;;;;;;15.45;10.77;;;;;;;7.08;98.56;101220.94;5034025;28;20054;-79
2021/11/14 01:19:33;;;;;;;17.17;10.88;;;;;;;7.09;98.43;101232.22;5012958;28;20651;-79
2021/11/14 01:22:00;;;;;;;15.00;9.93;;;;;;;7.08;98.38;101230.50;5003611;28;20046;-79
2021/11/14 01:24:26;;;;;;;13.48;9.52;;;;;;;7.07;98.85;101233.94;5017283;28;20203;-78
2021/11/14 01:26:53;;;;;;;12.95;10.38;;;;;;;7.04;99.11;101239.97;5005198;28;20045;-86
2021/11/14 01:29:22;;;;;;;16.02;9.65;;;;;;;7.02;99.12;101240.81;5025925;28;20053;-83
2021/11/14 01:31:58;;;;;;;17.30;11.25;;;;;;;7.01;99.71;101241.66;5009854;28;20159;-79
2021/11/14 01:34:30;;;;;;;18.52;11.40;;;;;;;7.01;99.86;101249.47;5021582;28;20050;-81
2021/11/14 01:36:58;;;;;;;15.73;11.18;;;;;;;6.99;100.00;101249.44;5033321;28;20388;-78
2021/11/14 01:39:24;;;;;;;14.43;10.85;;;;;;;7.00;99.86;101247.69;4998419;28;20046;-82
2021/11/14 01:42:27;;;;;;;13.77;10.00;;;;;;;7.00;100.00;101247.69;5010357;28;20045;-82
2021/11/14 01:44:56;;;;;;;18.05;10.95;;;;;;;7.01;100.00;101260.72;5001227;28;20084;-80
2021/11/14 01:47:25;;;;;;;15.77;11.40;;;;;;;6.99;100.00;101253.75;5019001;28;20098;-79
2021/11/14 01:49:52;;;;;;;16.83;11.18;;;;;;;6.98;100.00;101252.88;5017070;28;20077;-83
2021/11/14 01:52:30;;;;;;;19.48;13.15;;;;;;;6.98;100.00;101250.28;5034430;28;20053;-83
2021/11/14 01:54:57;;;;;;;17.17;12.05;;;;;;;6.93;100.00;101258.00;5023823;28;20056;-82
2021/11/14 01:57:28;;;;;;;18.10;11.45;;;;;;;6.90;100.00;101255.38;5023080;28;20061;-79
2021/11/14 02:00:00;;;;;;;14.95;10.57;;;;;;;6.87;100.00;101257.03;5008661;28;20610;-83
2021/11/14 02:02:26;;;;;;;16.30;11.43;;;;;;;6.84;100.00;101262.19;5041232;28;20138;-78
2021/11/14 02:04:56;;;;;;;19.55;11.95;;;;;;;6.82;100.00;101269.09;5023702;28;20037;-83
2021/11/14 02:07:23;;;;;;;19.05;11.52;;;;;;;6.81;100.00;101265.63;5021220;28;20124;-84
2021/11/14 02:09:49;;;;;;;18.55;12.02;;;;;;;6.78;100.00;101268.19;5020993;28;20092;-79
2021/11/14 02:12:16;;;;;;;17.77;11.43;;;;;;;6.77;100.00;101267.31;5021716;28;20050;-78
2021/11/14 02:14:45;;;;;;;14.10;10.85;;;;;;;6.78;100.00;101266.47;5040235;28;20392;-78
2021/11/14 02:17:19;;;;;;;16.30;11.05;;;;;;;6.82;100.00;101271.69;5005840;28;20115;-79
2021/11/14 02:19:53;;;;;;;;;;;;;;;6.82;100.00;101276.91;5022105;28;20047;-79
2021/11/14 02:22:22;;;;;;;14.73;10.05;;;;;;;6.83;100.00;101276.06;5021921;28;19929;-80
2021/11/14 02:24:58;;;;;;;15.95;11.18;;;;;;;6.85;100.00;101277.84;5003510;28;20467;-83
2021/11/14 02:27:34;;;;;;;20.63;13.45;;;;;;;6.87;100.00;101281.34;5005398;28;20087;-83
2021/11/14 02:30:03;;;;;;;19.75;12.60;;;;;;;6.87;100.00;101280.47;5021634;28;20049;-83
2021/11/14 02:32:32;;;;;;;23.13;15.18;;;;;;;6.87;100.00;101289.16;5030687;28;20053;-82
2021/11/14 02:34:59;;;;;;;23.05;14.00;;;;;;;6.84;100.00;101289.09;5020580;28;20499;-78
2021/11/14 02:37:36;;;;;;;20.27;14.40;;;;;;;6.84;100.00;101293.44;5037839;28;20046;-79
2021/11/14 02:40:10;;;;;;;22.42;14.35;;;;;;;6.83;100.00;101286.47;5036268;28;20034;-79
2021/11/14 02:42:57;;;;;;;;;;;;;;;6.83;100.00;101294.28;5003623;28;20061;-81
2021/11/14 02:45:27;;;;;;;23.30;13.75;;;;;;;6.84;100.00;101296.91;5022327;28;20024;-78
2021/11/14 02:47:58;;;;;;;21.05;14.43;;;;;;;6.83;100.00;101292.56;5022343;28;20149;-83
2021/11/14 02:50:27;;;;;;;24.75;15.07;;;;;;;6.81;100.00;101299.47;5018709;28;20048;-78
2021/11/14 02:52:56;;;;;;;22.38;15.25;;;;;;;6.79;100.00;101311.56;5042783;28;20037;-81
2021/11/14 02:55:28;;;;;;;22.83;14.35;;;;;;;6.77;100.00;101308.94;5023440;28;20041;-80
2021/11/14 02:57:56;;;;;;;18.55;13.13;;;;;;;6.74;100.00;101303.69;5021992;28;20711;-80
2021/11/14 03:00:30;;;;;;;23.35;16.52;;;;;;;6.73;100.00;101307.13;5018922;28;20065;-79
2021/11/14 03:03:05;;;;;;;24.67;17.13;;;;;;;6.75;100.00;101309.75;5017321;28;20574;-79
2021/11/14 03:05:48;;;;;;;26.15;15.63;;;;;;;6.73;100.00;101319.28;5021667;28;20353;-80
2021/11/14 03:08:17;;;;;;;25.77;16.40;;;;;;;6.73;100.00;101312.34;5028177;28;20049;-82
2021/11/14 03:10:44;;;;;;;26.60;16.83;;;;;;;6.71;100.00;101314.03;5020076;28;21148;-81
2021/11/14 03:13:18;;;;;;;27.95;17.60;;;;;;;6.68;100.00;101318.31;5021203;28;20518;-80
2021/11/14 03:16:00;;;;;;;27.27;16.65;;;;;;;6.64;100.00;101319.97;5039862;28;20506;-78
2021/11/14 03:18:27;;;;;;;28.10;18.23;;;;;;;6.62;100.00;101329.47;5018813;28;20049;-80
2021/11/14 03:21:02;;;;;;;30.65;17.15;;;;;;;6.62;100.00;101321.66;5005736;28;20046;-79
2021/11/14 03:23:38;;;;;;;29.33;19.77;;;;;;;6.62;100.00;101335.56;5021424;28;20148;-84
2021/11/14 03:26:05;;;;;;;30.40;19.15;;;;;;;6.60;100.00;101334.66;5031174;28;20052;-80
2021/11/14 03:28:35;;;;;;;29.23;18.95;;;;;;;6.59;100.00;101335.50;5037839;28;20038;-80
2021/11/14 03:31:02;;;;;;;26.17;16.88;;;;;;;6.58;100.00;101336.38;5023852;28;20179;-77
2021/11/14 03:33:29;;;;;;;27.45;18.88;;;;;;;6.58;100.00;101338.97;5020483;28;20527;-81
2021/11/14 03:36:10;;;;;;;28.92;18.88;;;;;;;6.57;100.00;101337.22;5025199;28;20047;-84
2021/11/14 03:38:52;;;;;;;30.58;18.65;;;;;;;6.57;100.00;101338.91;5012901;28;20547;-80
2021/11/14 03:41:42;;;;;;;33.22;19.40;;;;;;;6.58;100.00;101345.88;5025944;28;20060;-78
2021/11/14 03:46:52;;;;;;;36.17;20.15;;;;;;;6.58;100.00;101344.19;5019886;28;20054;-78
2021/11/14 03:49:19;;;;;;;32.75;20.70;;;;;;;6.60;100.00;101345.06;5016316;28;20131;-79
2021/11/14 03:51:48;;;;;;;30.38;19.30;;;;;;;6.64;100.00;101347.75;5020821;28;20088;-80
2021/11/14 03:54:15;;;;;;;37.13;21.38;;;;;;;6.64;100.00;101355.53;5003252;28;20176;-79
2021/11/14 03:56:51;;;;;;;31.17;19.17;;;;;;;6.65;100.00;101349.47;5037826;28;20037;-80
2021/11/14 03:59:28;;;;;;;37.40;19.63;;;;;;;6.66;100.00;101351.22;5019016;28;20041;-78
2021/11/14 04:02:00;;;;;;;34.50;20.83;;;;;;;6.67;100.00;101353.84;5019525;28;20058;-80
2021/11/14 04:04:27;;;;;;;34.28;21.13;;;;;;;6.69;100.00;101364.28;5018909;28;20038;-79
2021/11/14 04:06:54;;;;;;;40.92;21.02;;;;;;;6.69;100.00;101366.88;5003944;28;20049;-82
2021/11/14 04:09:25;;;;;;;33.63;21.15;;;;;;;6.66;100.00;101370.31;4998793;28;20049;-83
2021/11/14 04:11:57;;;;;;;32.25;19.25;;;;;;;6.66;100.00;101369.44;5022009;28;20049;-83
2021/11/14 04:14:23;;;;;;;32.40;19.80;;;;;;;6.62;100.00;101374.59;5001754;28;20038;-79
2021/11/14 04:16:53;;;;;;;28.13;17.70;;;;;;;6.61;100.00;101371.97;5013241;28;20053;-82
2021/11/14 04:19:20;;;;;;;34.58;19.92;;;;;;;6.59;100.00;101384.91;5000129;28;20052;-80
2021/11/14 04:21:51;;;;;;;31.80;19.48;;;;;;;6.58;100.00;101378.00;5038912;28;20042;-82
2021/11/14 04:24:49;;;;;;;34.30;19.60;;;;;;;6.61;100.00;101384.97;5032862;28;20061;-83
2021/11/14 04:27:29;;;;;;;29.65;19.60;;;;;;;6.62;100.00;101384.09;5039285;28;20037;-80
2021/11/14 04:29:55;;;;;;;34.05;18.73;;;;;;;6.62;100.00;101389.31;5022068;28;20034;-79
2021/11/14 04:32:24;;;;;;;31.73;20.20;;;;;;;6.63;100.00;101398.88;5018506;28;20076;-82
2021/11/14 04:34:53;;;;;;;29.73;17.33;;;;;;;6.64;100.00;101384.16;5024783;28;20049;-80
2021/11/14 04:37:22;;;;;;;33.97;19.02;;;;;;;6.63;100.00;101391.06;5019730;28;20714;-84
2021/11/14 04:39:49;;;;;;;32.03;17.40;;;;;;;6.61;100.00;101387.59;5016560;28;20101;-78
2021/11/14 04:42:15;;;;;;;34.50;19.33;;;;;;;6.62;100.00;101385.00;5024863;28;20076;-79
2021/11/14 04:44:42;;;;;;;38.90;21.00;;;;;;;6.65;100.00;101392.00;5037966;28;20101;-80
2021/11/14 04:47:08;;;;;;;41.83;19.95;;;;;;;6.67;100.00;101397.22;5018518;28;20452;-81
2021/11/14 04:49:35;;;;;;;38.45;20.88;;;;;;;6.68;100.00;101391.16;5035617;28;20053;-79
2021/11/14 04:52:05;;;;;;;35.05;18.98;;;;;;;6.72;100.00;101398.19;5018166;28;20052;-83
2021/11/14 04:54:31;;;;;;;36.50;18.52;;;;;;;6.71;100.00;101397.28;5019699;28;20037;-80
2021/11/14 04:57:06;;;;;;;30.25;18.15;;;;;;;6.72;100.00;101401.66;5015555;28;20045;-79
2021/11/14 04:59:48;;;;;;;33.13;19.80;;;;;;;6.73;100.00;101405.16;5000546;28;20131;-79
2021/11/14 05:02:15;;;;;;;40.67;19.65;;;;;;;6.75;100.00;101408.63;5037608;28;20056;-78
2021/11/14 05:04:48;;;;;;;37.63;18.40;;;;;;;6.75;100.00;101416.44;5039186;28;20119;-78
2021/11/14 05:07:15;;;;;;;28.90;18.05;;;;;;;6.75;100.00;101408.63;5037799;28;20136;-82
2021/11/14 05:09:46;;;;;;;32.95;17.23;;;;;;;6.76;100.00;101408.66;5035565;28;20049;-79
2021/11/14 05:12:15;;;;;;;32.72;17.73;;;;;;;6.77;100.00;101422.56;5012171;28;20494;-81
2021/11/14 05:14:51;;;;;;;34.50;19.65;;;;;;;6.76;100.00;101418.19;5020402;28;20041;-80
2021/11/14 05:17:18;;;;;;;37.22;18.45;;;;;;;6.77;100.00;101425.16;5023836;28;20049;-81
2021/11/14 05:19:47;;;;;;;39.72;20.35;;;;;;;6.77;100.00;101431.25;5013491;28;20532;-84
2021/11/14 05:22:14;;;;;;;31.80;18.55;;;;;;;6.77;100.00;101431.25;5033623;28;20045;-85
2021/11/14 05:24:48;;;;;;;30.95;18.23;;;;;;;6.81;100.00;101437.38;5040748;28;20072;-80
2021/11/14 05:27:24;;;;;;;33.35;17.35;;;;;;;6.81;100.00;101440.00;5043462;28;20034;-82
2021/11/14 05:29:58;;;;;;;36.03;17.70;;;;;;;6.81;100.00;101441.72;5037715;28;20077;-81
2021/11/14 05:32:25;;;;;;;36.58;17.40;;;;;;;6.81;100.00;101437.38;5024482;28;20114;-81
2021/11/14 05:34:51;;;;;;;35.88;19.67;;;;;;;6.81;100.00;101445.19;5060478;28;20045;-81
2021/11/14 05:37:18;;;;;;;35.28;18.10;;;;;;;6.82;100.00;101449.56;5037279;28;20105;-79
2021/11/14 05:39:47;;;;;;;28.65;15.07;;;;;;;6.84;100.00;101454.78;5025687;28;20431;-81
2021/11/14 05:42:19;;;;;;;34.83;17.35;;;;;;;6.84;100.00;101458.25;5042551;28;20062;-81
2021/11/14 05:44:45;;;;;;;38.22;19.40;;;;;;;6.86;100.00;101456.56;5036016;28;20495;-79
2021/11/14 05:47:12;;;;;;;32.10;16.63;;;;;;;6.85;100.00;101465.22;5014353;28;20129;-78
2021/11/14 05:49:38;;;;;;;38.85;18.83;;;;;;;6.84;100.00;101468.66;5030268;28;20124;-78
2021/11/14 05:52:08;;;;;;;36.38;18.40;;;;;;;6.84;100.00;101473.00;5031531;28;20051;-79
2021/11/14 05:54:35;;;;;;;34.63;17.85;;;;;;;6.83;100.00;101477.34;5047933;28;20044;-78
2021/11/14 05:57:01;;;;;;;35.47;18.23;;;;;;;6.85;100.00;101482.56;5029669;28;20048;-80
2021/11/14 05:59:35;;;;;;;38.38;19.58;;;;;;;6.83;100.00;101481.66;5011994;28;20169;-80
2021/11/14 06:02:07;;;;;;;32.17;17.27;;;;;;;6.82;100.00;101480.78;5023695;28;20700;-80
2021/11/14 06:04:50;;;;;;;33.95;17.48;;;;;;;6.82;100.00;101487.69;5026258;28;20068;-79
2021/11/14 06:07:20;;;;;;;31.95;18.15;;;;;;;6.79;100.00;101489.41;5023787;28;20049;-79
2021/11/14 06:09:52;;;;;;;35.30;17.98;;;;;;;6.83;100.00;101494.66;5040305;28;20052;-81
2021/11/14 06:12:20;;;;;;;32.80;16.30;;;;;;;6.83;100.00;101495.56;5041459;28;20034;-80
2021/11/14 06:14:54;;;;;;;34.92;17.25;;;;;;;6.85;100.00;101499.06;5023588;28;20080;-82
2021/11/14 06:17:25;;;;;;;;;;;;;;;6.84;100.00;101499.91;5029650;28;20143;-82
2021/11/14 06:19:52;;;;;;;30.25;16.33;;;;;;;6.85;100.00;101514.66;5010820;28;19931;-80
2021/11/14 06:22:20;;;;;;;38.33;18.90;;;;;;;6.86;100.00;101516.44;5028842;28;20038;-79
2021/11/14 06:24:48;;;;;;;35.17;17.67;;;;;;;6.86;100.00;101518.16;5024017;28;20385;-83
2021/11/14 06:27:15;;;;;;;39.65;19.02;;;;;;;6.89;100.00;101529.50;5021375;28;20053;-79
2021/11/14 06:29:42;;;;;;;37.00;18.25;;;;;;;6.90;100.00;101533.00;5025343;28;20099;-80
2021/11/14 06:32:11;;;;;;;36.42;19.52;;;;;;;6.90;100.00;101544.28;5025374;28;20036;-82
2021/11/14 06:34:38;;;;;;;34.05;17.60;;;;;;;6.89;100.00;101550.31;5030196;28;20055;-78
2021/11/14 06:37:05;;;;;;;31.45;17.42;;;;;;;6.90;100.00;101548.63;5010404;28;20632;-78
2021/11/14 06:39:35;;;;;;;40.08;18.55;;;;;;;6.90;100.00;101553.81;5026248;28;20052;-78
2021/11/14 06:42:03;;;;;;;42.72;19.63;;;;;;;6.90;100.00;101554.69;5024691;28;20059;-79
2021/11/14 06:44:29;;;;;;;37.08;18.15;;;;;;;6.91;100.00;101560.75;5026904;28;20490;-78
2021/11/14 06:46:58;;;;;;;39.15;19.95;;;;;;;6.90;100.00;101559.88;4999635;28;20045;-81
2021/11/14 06:49:29;;;;;;;39.58;19.08;;;;;;;6.91;100.00;101568.56;5009268;28;20132;-81
2021/11/14 06:51:58;;;;;;;33.28;17.83;;;;;;;6.91;100.00;101560.75;5006588;28;20133;-80
2021/11/14 06:54:27;;;;;;;38.92;18.88;;;;;;;6.92;100.00;101560.81;5042490;28;20052;-83
2021/11/14 06:56:54;;;;;;;37.20;18.48;;;;;;;6.93;100.00;101570.34;5023146;28;20518;-79
2021/11/14 06:59:22;;;;;;;32.03;17.02;;;;;;;6.95;100.00;101575.63;5023810;28;20049;-81
2021/11/14 07:01:51;;;;;;;30.23;16.20;;;;;;;6.97;100.00;101580.84;5024360;28;20045;-83
2021/11/14 07:04:18;;;;;;;34.55;17.15;;;;;;;6.97;100.00;101586.06;5025321;28;20041;-78
2021/11/14 07:06:46;;;;;;;31.58;17.38;;;;;;;6.96;100.00;101582.56;5039610;28;20132;-77
2021/11/14 07:09:17;;;;;;;36.88;19.05;;;;;;;6.98;100.00;101593.03;5024571;28;20037;-80
2021/11/14 07:11:43;;;;;;;32.53;17.67;;;;;;;6.95;100.00;101589.50;5036009;28;20562;-81
2021/11/14 07:14:10;;;;;;;28.75;16.80;;;;;;;6.98;100.00;101593.88;5023605;28;20050;-81
2021/11/14 07:16:41;;;;;;;34.58;17.40;;;;;;;6.99;100.00;101606.06;5029491;28;20052;-79
2021/11/14 07:19:09;;;;;;;36.42;18.52;;;;;;;6.99;100.00;101600.88;5027919;28;20087;-83
2021/11/14 07:21:36;;;;;;;34.40;19.23;;;;;;;7.02;100.00;101616.53;5024048;28;20041;-82
2021/11/14 07:24:06;;;;;;;28.75;16.83;;;;;;;7.04;100.00;101621.78;5019117;28;20042;-80
2021/11/14 07:26:35;;;;;;;34.53;17.33;;;;;;;7.04;100.00;101630.47;5000807;28;20046;-82
2021/11/14 07:29:05;;;;;;;33.65;18.77;;;;;;;7.05;100.00;101631.34;5017457;28;20056;-78
2021/11/14 07:31:33;;;;;;;33.50;17.33;;;;;;;7.05;100.00;101631.34;5020517;28;20100;-82
2021/11/14 07:34:00;;;;;;;34.00;17.60;;;;;;;7.05;100.00;101634.84;5018417;28;20042;-79
2021/11/14 07:36:30;;;;;;;34.85;17.17;;;;;;;7.07;100.00;101634.88;5024949;28;20493;-83
2021/11/14 07:38:57;;;;;;;30.42;16.92;;;;;;;7.08;100.00;101642.72;5020026;28;20681;-84
2021/11/14 07:41:24;;;;;;;41.30;18.20;;;;;;;7.07;100.00;101640.94;5040680;28;20141;-81
2021/11/14 07:43:53;;;;;;;30.10;16.77;;;;;;;7.10;100.00;101650.53;5017240;28;20056;-83
2021/11/14 07:46:20;;;;;;;31.55;17.75;;;;;;;7.09;100.00;101644.47;5015446;28;20041;-82
2021/11/14 07:48:46;;;;;;;32.63;18.60;;;;;;;7.12;100.00;101652.34;5001632;28;20049;-80
2021/11/14 07:51:17;;;;;;;36.88;18.95;;;;;;;7.15;100.00;101648.91;5019415;28;20157;-78
2021/11/14 07:53:43;;;;;;;34.15;17.35;;;;;;;7.20;100.00;101662.06;5020954;28;20049;-78
2021/11/14 07:56:12;;;;;;;38.97;20.15;;;;;;;7.22;100.00;101650.81;5037312;28;20049;-79
2021/11/14 07:59:03;;;;;;;36.22;18.63;;;;;;;7.25;100.00;101655.22;5021859;28;20046;-80
2021/11/14 08:01:30;;;;;;;35.22;18.45;;;;;;;7.31;100.00;101659.66;5031913;28;20053;-81
2021/11/14 08:04:15;;;;;;;32.30;18.25;;;;;;;7.34;100.00;101667.53;5022749;28;20044;-80
2021/11/14 08:06:49;;;;;;;31.48;17.10;;;;;;;7.35;100.00;101670.16;5018162;28;20056;-79
2021/11/14 08:09:31;;;;;;;33.28;17.83;;;;;;;7.41;100.00;101677.25;5023436;28;20048;-78
2021/11/14 08:11:57;;;;;;;36.70;17.20;;;;;;;7.42;100.00;101674.66;5023145;28;20057;-81
2021/11/14 08:14:29;;;;;;;34.75;19.67;;;;;;;7.43;100.00;101686.84;5021676;28;20047;-83
2021/11/14 08:16:56;;;;;;;34.58;20.05;;;;;;;7.46;100.00;101680.81;5024592;28;20526;-80
2021/11/14 08:19:22;;;;;;;33.75;18.63;;;;;;;7.48;100.00;101689.53;5033200;28;20053;-86
2021/11/14 08:21:51;;;;;;;43.33;20.80;;;;;;;7.52;100.00;101685.28;5023583;28;20484;-79
2021/11/14 08:24:34;;;;;;;31.17;17.90;;;;;;;7.61;100.00;101685.44;5016845;28;20111;-85
2021/11/14 08:27:01;;;;;;;38.50;19.30;;;;;;;7.69;100.00;101688.22;5018647;28;20100;-82
2021/11/14 08:29:27;;;;;;;31.73;19.10;;;;;;;7.74;100.00;101692.69;5034532;28;20737;-82
2021/11/14 08:31:57;;;;;;;39.10;19.95;;;;;;;7.77;100.00;101686.66;5013788;28;20057;-81
2021/11/14 08:34:27;;;;;;;31.67;18.67;;;;;;;7.78;100.00;101696.19;5037058;28;20115;-84
2021/11/14 08:36:57;;;;;;;30.35;17.88;;;;;;;7.79;100.00;101703.19;5003653;28;20107;-82
2021/11/14 08:39:28;;;;;;;39.40;21.33;;;;;;;7.78;100.00;101707.53;5017511;28;20452;-80
2021/11/14 08:41:55;;;;;;;35.10;20.90;;;;;;;7.81;100.00;101695.38;5004876;28;20053;-82
2021/11/14 08:44:25;;;;;;;42.15;20.38;;;;;;;7.82;100.00;101707.56;5022611;28;20458;-79
2021/11/14 08:46:53;;;;;;;37.05;20.65;;;;;;;7.85;100.00;101697.19;5021904;28;20756;-78
2021/11/14 08:49:20;;;;;;;34.95;19.08;;;;;;;7.92;100.00;101704.28;5002020;28;20057;-80
2021/11/14 08:51:47;;;;;;;35.58;20.23;;;;;;;7.98;100.00;101716.56;5019304;28;20049;-78
2021/11/14 08:54:16;;;;;;;37.45;19.23;;;;;;;8.03;100.00;101715.81;5021620;28;20045;-79
2021/11/14 08:56:48;;;;;;;33.97;19.85;;;;;;;8.09;100.00;101725.47;5044556;28;20052;-82
2021/11/14 08:59:14;;;;;;;36.22;20.77;;;;;;;8.10;100.00;101719.41;5028104;28;20045;-81
2021/11/14 09:01:44;;;;;;;32.30;19.67;;;;;;;8.13;100.00;101724.69;5008136;28;20091;-84
2021/11/14 09:04:14;;;;;;;38.58;21.02;;;;;;;8.16;100.00;101718.63;5019799;28;20081;-84
2021/11/14 09:06:42;;;;;;;35.95;22.70;;;;;;;8.18;100.00;101727.38;5027163;28;20041;-81
2021/11/14 09:09:13;;;;;;;32.90;20.23;;;;;;;8.19;100.00;101734.38;5022279;28;20049;-79
2021/11/14 09:11:44;;;;;;;31.70;18.10;;;;;;;8.21;100.00;101740.47;5021999;28;20041;-80
2021/11/14 09:14:13;;;;;;;34.90;19.48;;;;;;;8.18;99.67;101748.25;5021491;28;20056;-85
2021/11/14 09:16:40;;;;;;;33.85;18.70;;;;;;;8.16;99.15;101752.53;5034035;28;20042;-82
2021/11/14 09:19:09;;;;;;;33.35;19.77;;;;;;;8.14;99.59;101754.25;5031145;28;20152;-77
2021/11/14 09:21:39;;;;;;;32.42;21.15;;;;;;;8.13;99.31;101757.72;5021239;28;20076;-84
2021/11/14 09:24:07;;;;;;;34.40;20.15;;;;;;;8.13;98.99;101761.19;5037429;28;20049;-83
2021/11/14 09:26:43;;;;;;;;;;;;;;;;;;;;;
2021/11/14 09:29:12;;;;;;;30.98;19.45;;;;;;;8.10;98.84;101768.97;5057754;28;20057;-82
2021/11/14 09:31:48;;;;;;;34.90;20.85;;;;;;;8.07;99.41;101766.28;5055569;28;20045;-81
2021/11/14 09:34:14;;;;;;;35.15;19.27;;;;;;;8.08;99.28;101775.88;5038797;28;20055;-79
2021/11/14 09:36:47;;;;;;;30.05;20.08;;;;;;;8.08;99.01;101778.47;5041449;28;20053;-76
2021/11/14 09:39:15;;;;;;;32.80;20.10;;;;;;;8.06;98.88;101791.50;5046914;28;20088;-79
2021/11/14 09:41:47;;;;;;;27.63;17.25;;;;;;;8.02;99.60;101786.19;5017029;28;20041;-77
2021/11/14 09:44:18;;;;;;;32.38;19.02;;;;;;;8.06;99.58;101785.41;5039472;28;20056;-79
2021/11/14 09:46:56;;;;;;;33.47;19.65;;;;;;;8.10;99.81;101788.09;5046611;28;20049;-77
2021/11/14 09:49:26;;;;;;;36.05;20.75;;;;;;;8.15;99.57;101793.41;5022532;28;20135;-82
2021/11/14 09:51:58;;;;;;;29.35;18.30;;;;;;;8.21;99.11;101787.41;5007204;28;20565;-80
2021/11/14 09:54:29;;;;;;;32.05;17.50;;;;;;;8.28;99.08;101791.91;5024019;28;20057;-81
2021/11/14 09:56:57;;;;;;;33.53;19.42;;;;;;;8.35;98.84;101793.78;5022755;28;20129;-80
2021/11/14 09:59:27;;;;;;;34.03;18.55;;;;;;;8.39;98.72;101792.09;5005170;28;20115;-81
2021/11/14 10:02:07;;;;;;;;;;;;;;;;;;;;;
2021/11/14 10:04:41;;;;;;;27.90;16.75;;;;;;;8.34;98.04;101797.22;5013482;28;20053;-80
2021/11/14 10:07:11;;;;;;;30.80;18.10;;;;;;;8.33;98.31;101800.72;5020860;28;20154;-79
2021/11/14 10:09:44;;;;;;;31.65;17.58;;;;;;;8.33;98.46;101790.28;5020017;28;20049;-80
2021/11/14 10:12:30;;;;;;;27.63;17.77;;;;;;;8.31;98.74;101791.97;5007644;28;20107;-82
2021/11/14 10:15:11;;;;;;;35.15;17.98;;;;;;;8.34;98.59;101799.84;5015733;28;20045;-83
2021/11/14 10:17:45;;;;;;;28.23;16.77;;;;;;;8.35;98.84;101798.13;4994420;28;20045;-77
2021/11/14 10:20:19;;;;;;;;;;;;;;;8.35;98.19;101795.50;5021066;28;20134;-81
2021/11/14 10:22:50;;;;;;;;;;;;;;;8.31;98.07;101799.78;5011535;28;19925;-78
2021/11/14 10:25:28;;;;;;;25.85;15.40;;;;;;;8.32;98.63;101804.16;5023816;28;19929;-83
2021/11/14 10:28:01;;;;;;;30.48;16.65;;;;;;;8.35;98.70;101805.94;5021632;28;20130;-77
2021/11/14 10:30:34;;;;;;;32.20;18.67;;;;;;;8.37;98.65;101805.13;5022874;28;21571;-77
2021/11/14 10:33:09;;;;;;;27.65;16.85;;;;;;;8.41;98.24;101808.69;5018163;28;20140;-82
2021/11/14 10:35:40;;;;;;;32.88;18.70;;;;;;;8.46;98.20;101807.06;5024358;28;20051;-83
2021/11/14 10:38:19;;;;;;;28.27;19.23;;;;;;;8.50;97.97;101807.97;5019177;28;20057;-78
2021/11/14 10:41:00;;;;;;;27.73;17.45;;;;;;;8.53;97.62;101806.31;5029303;28;20156;-83
2021/11/14 10:43:32;;;;;;;33.20;18.95;;;;;;;8.56;96.89;101803.75;5017647;28;20290;-84
2021/11/14 10:46:02;;;;;;;29.88;18.25;;;;;;;8.56;97.28;101808.09;5000431;28;20048;-79
2021/11/14 10:48:31;;;;;;;29.67;18.20;;;;;;;8.57;97.25;101807.25;5027104;28;20048;-82
2021/11/14 10:51:04;;;;;;;28.33;16.23;;;;;;;8.61;96.20;101803.84;5021027;28;20052;-78
2021/11/14 10:53:33;;;;;;;31.65;18.40;;;;;;;8.63;96.28;101801.25;5020875;28;20053;-80
2021/11/14 10:56:09;;;;;;;28.85;17.73;;;;;;;8.64;96.04;101806.50;5037727;28;20082;-77
2021/11/14 10:58:40;;;;;;;29.45;16.27;;;;;;;8.67;95.63;101816.13;5021054;28;20040;-81
2021/11/14 11:01:12;;;;;;;25.15;15.65;;;;;;;8.65;94.93;101813.47;5002919;28;20105;-80
2021/11/14 11:03:45;;;;;;;25.35;17.05;;;;;;;8.60;95.85;101810.81;5023911;28;20045;-81
2021/11/14 11:06:28;;;;;;;24.15;16.90;;;;;;;8.60;95.60;101817.75;5027463;28;20528;-80
2021/11/14 11:09:06;;;;;;;24.38;15.20;;;;;;;8.61;95.73;101819.50;5024754;28;20061;-80
2021/11/14 11:11:43;;;;;;;30.90;18.20;;;;;;;8.60;96.07;101823.84;5026284;28;20072;-79
2021/11/14 11:14:13;;;;;;;24.65;15.30;;;;;;;8.65;96.01;101825.66;5005350;28;20069;-80
2021/11/14 11:16:42;;;;;;;24.50;16.42;;;;;;;8.65;95.73;101818.69;5007322;28;20072;-78
2021/11/14 11:19:14;;;;;;;28.00;17.88;;;;;;;8.65;95.69;101823.06;5017264;28;20137;-80
2021/11/14 11:21:47;;;;;;;31.15;18.00;;;;;;;8.60;95.87;101823.84;5005722;28;20080;-78
2021/11/14 11:24:24;;;;;;;34.17;18.17;;;;;;;8.52;96.19;101830.66;5008338;28;20045;-79
2021/11/14 11:27:07;;;;;;;26.90;17.58;;;;;;;8.45;96.22;101828.75;5040613;28;20049;-79
2021/11/14 11:29:45;;;;;;;32.45;19.38;;;;;;;8.39;96.54;101834.72;5018602;28;20061;-80
2021/11/14 11:32:16;;;;;;;34.45;18.85;;;;;;;8.31;97.13;101833.72;5020584;28;20141;-80
2021/11/14 11:34:48;;;;;;;28.80;19.20;;;;;;;8.27;97.43;101834.50;5021488;28;20093;-78
2021/11/14 11:37:16;;;;;;;30.45;17.08;;;;;;;8.24;97.53;101831.84;5015394;28;20135;-84